createdAt,value
2022-10-18T00:00:48.056Z,15.20
2022-10-18T00:03:14.840Z,15.30
2022-10-18T00:05:41.547Z,15.30
2022-10-18T00:08:08.220Z,15.30
2022-10-18T00:10:34.948Z,15.30
2022-10-18T00:13:01.845Z,15.30
2022-10-18T00:15:28.521Z,15.30
2022-10-18T00:17:55.211Z,15.30
2022-10-18T00:20:22.054Z,15.30
2022-10-18T00:22:48.758Z,15.30
2022-10-18T00:25:15.481Z,15.30
2022-10-18T00:27:42.296Z,15.30
2022-10-18T00:30:09.593Z,15.30
2022-10-18T00:32:38.253Z,15.30
2022-10-18T00:35:06.179Z,15.30
2022-10-18T00:37:34.074Z,15.30
2022-10-18T00:40:01.183Z,15.30
2022-10-18T00:42:34.470Z,15.30
2022-10-18T00:45:18.498Z,15.30
2022-10-18T00:47:48.599Z,15.30
2022-10-18T00:50:15.720Z,15.30
2022-10-18T00:52:52.461Z,15.30
2022-10-18T00:55:19.667Z,15.30
2022-10-18T00:57:47.301Z,15.30
2022-10-18T01:00:14.341Z,15.30
2022-10-18T01:02:43.494Z,15.30
2022-10-18T01:05:12.992Z,15.20
2022-10-18T01:07:45.451Z,15.20
2022-10-18T01:10:37.194Z,15.20
2022-10-18T01:13:30.714Z,15.20
2022-10-18T01:16:03.318Z,15.20
2022-10-18T01:18:29.958Z,15.20
2022-10-18T01:21:17.516Z,15.20
2022-10-18T01:24:07.025Z,15.10
2022-10-18T01:26:48.130Z,15.20
2022-10-18T01:29:41.456Z,15.10
2022-10-18T01:32:28.802Z,15.10
2022-10-18T01:35:03.986Z,15.10
2022-10-18T01:37:32.645Z,15.10
2022-10-18T01:40:03.623Z,15.10
2022-10-18T01:42:31.760Z,15.10
2022-10-18T01:45:00.287Z,15.10
2022-10-18T01:47:28.008Z,15.10
2022-10-18T01:50:04.152Z,15.10
2022-10-18T01:52:31.463Z,15.00
2022-10-18T01:55:00.481Z,15.00
2022-10-18T01:57:37.462Z,15.00
2022-10-18T02:00:16.547Z,15.00
2022-10-18T02:02:43.167Z,15.10
2022-10-18T02:05:19.067Z,15.00
2022-10-18T02:08:00.198Z,15.00
2022-10-18T02:11:05.715Z,15.00
2022-10-18T02:14:03.095Z,15.00
2022-10-18T02:16:40.750Z,15.00
2022-10-18T02:19:39.845Z,15.00
2022-10-18T02:22:08.721Z,15.00
2022-10-18T02:24:38.838Z,15.00
2022-10-18T02:27:05.973Z,15.00
2022-10-18T02:29:33.361Z,15.00
2022-10-18T02:32:26.218Z,15.00
2022-10-18T02:35:03.558Z,15.00
2022-10-18T02:37:36.208Z,15.00
2022-10-18T02:40:05.825Z,15.00
2022-10-18T02:42:37.125Z,15.00
2022-10-18T02:45:05.929Z,15.00
2022-10-18T02:47:33.031Z,15.00
2022-10-18T02:49:59.875Z,15.00
2022-10-18T02:52:26.568Z,15.00
2022-10-18T02:54:53.360Z,15.00
2022-10-18T02:57:20.108Z,15.00
2022-10-18T02:59:47.129Z,15.00
2022-10-18T03:02:13.822Z,15.00
2022-10-18T03:04:40.528Z,15.00
2022-10-18T03:07:07.326Z,15.00
2022-10-18T03:09:33.985Z,15.00
2022-10-18T03:12:00.822Z,15.00
2022-10-18T03:14:27.513Z,15.10
2022-10-18T03:16:54.232Z,15.00
2022-10-18T03:19:20.942Z,15.10
2022-10-18T03:21:47.695Z,15.00
2022-10-18T03:24:14.514Z,15.10
2022-10-18T03:26:41.191Z,15.00
2022-10-18T03:29:11.202Z,15.00
2022-10-18T03:31:38.074Z,15.00
2022-10-18T03:34:04.847Z,15.00
2022-10-18T03:36:31.661Z,15.00
2022-10-18T03:38:58.305Z,15.00
2022-10-18T03:41:25.034Z,15.00
2022-10-18T03:43:51.739Z,15.00
2022-10-18T03:46:18.432Z,15.00
2022-10-18T03:48:45.213Z,15.00
2022-10-18T03:51:11.969Z,15.00
2022-10-18T03:53:38.641Z,15.00
2022-10-18T03:56:05.826Z,15.00
2022-10-18T04:01:06.637Z,15.00
2022-10-18T04:03:33.683Z,15.00
2022-10-18T04:06:00.882Z,15.00
2022-10-18T04:08:27.581Z,15.00
2022-10-18T04:10:54.318Z,15.00
2022-10-18T04:13:44.160Z,15.10
2022-10-18T04:16:11.042Z,15.00
2022-10-18T04:18:37.852Z,15.00
2022-10-18T04:21:04.701Z,15.00
2022-10-18T04:23:33.899Z,15.00
2022-10-18T04:26:03.264Z,15.00
2022-10-18T04:28:35.336Z,15.00
2022-10-18T04:31:02.158Z,15.10
2022-10-18T04:33:28.833Z,15.10
2022-10-18T04:35:55.562Z,15.10
2022-10-18T04:38:22.296Z,15.00
2022-10-18T04:40:50.581Z,15.00
2022-10-18T04:43:17.575Z,15.00
2022-10-18T04:45:48.213Z,15.00
2022-10-18T04:48:15.510Z,15.00
2022-10-18T04:50:42.206Z,15.00
2022-10-18T04:53:09.120Z,15.10
2022-10-18T04:55:36.239Z,15.10
2022-10-18T04:58:03.016Z,15.10
2022-10-18T05:00:30.086Z,15.00
2022-10-18T05:03:00.088Z,15.00
2022-10-18T05:05:43.232Z,15.00
2022-10-18T05:08:14.122Z,15.00
2022-10-18T05:10:41.059Z,15.00
2022-10-18T05:13:07.866Z,15.00
2022-10-18T05:15:34.582Z,15.00
2022-10-18T05:18:01.336Z,15.00
2022-10-18T05:20:28.284Z,15.00
2022-10-18T05:22:54.976Z,15.00
2022-10-18T05:25:21.677Z,15.00
2022-10-18T05:27:48.389Z,15.00
2022-10-18T05:30:15.179Z,15.00
2022-10-18T05:32:41.900Z,15.00
2022-10-18T05:35:08.862Z,15.00
2022-10-18T05:37:36.047Z,15.00
2022-10-18T05:40:02.935Z,15.00
2022-10-18T05:42:30.319Z,15.00
2022-10-18T05:44:57.254Z,15.00
2022-10-18T05:47:24.042Z,15.00
2022-10-18T05:49:50.920Z,15.00
2022-10-18T05:52:17.695Z,15.00
2022-10-18T05:54:44.457Z,15.00
2022-10-18T05:57:11.209Z,15.00
2022-10-18T05:59:38.032Z,14.90
2022-10-18T06:02:04.827Z,15.00
2022-10-18T06:04:31.571Z,14.90
2022-10-18T06:06:58.350Z,14.90
2022-10-18T06:09:26.010Z,15.00
2022-10-18T06:11:52.912Z,14.90
2022-10-18T06:14:19.651Z,14.90
2022-10-18T06:16:46.459Z,14.90
2022-10-18T06:19:19.316Z,14.90
2022-10-18T06:21:49.098Z,14.90
2022-10-18T06:24:18.327Z,15.00
2022-10-18T06:26:45.118Z,14.90
2022-10-18T06:29:12.116Z,14.90
2022-10-18T06:31:38.886Z,14.90
2022-10-18T06:34:05.699Z,14.90
2022-10-18T06:36:32.475Z,14.90
2022-10-18T06:38:59.983Z,14.90
2022-10-18T06:41:26.658Z,14.90
2022-10-18T06:43:58.447Z,15.00
2022-10-18T06:46:25.785Z,15.00
2022-10-18T06:48:52.756Z,15.00
2022-10-18T06:51:20.069Z,15.00
2022-10-18T06:53:59.234Z,15.00
2022-10-18T06:56:34.688Z,15.00
2022-10-18T06:59:01.517Z,15.00
2022-10-18T07:01:28.691Z,15.00
2022-10-18T07:03:56.301Z,15.00
2022-10-18T07:06:24.163Z,15.00
2022-10-18T07:08:54.006Z,15.00
2022-10-18T07:11:26.350Z,15.00
2022-10-18T07:13:55.185Z,15.00
2022-10-18T07:16:22.258Z,15.00
2022-10-18T07:18:50.975Z,15.10
2022-10-18T07:21:20.823Z,15.10
2022-10-18T07:23:48.645Z,15.10
2022-10-18T07:26:20.178Z,15.10
2022-10-18T07:28:49.299Z,15.10
2022-10-18T07:31:16.272Z,15.10
2022-10-18T07:33:43.107Z,15.10
2022-10-18T07:36:11.750Z,15.10
2022-10-18T07:38:38.591Z,15.10
2022-10-18T07:41:07.003Z,15.10
2022-10-18T07:43:34.486Z,15.10
2022-10-18T07:46:03.353Z,15.10
2022-10-18T07:48:30.336Z,15.20
2022-10-18T07:51:01.411Z,15.20
2022-10-18T07:53:31.674Z,15.20
2022-10-18T07:56:01.368Z,15.30
2022-10-18T07:58:32.407Z,15.30
2022-10-18T08:01:06.450Z,15.30
2022-10-18T08:03:33.633Z,15.40
2022-10-18T08:06:00.693Z,15.40
2022-10-18T08:08:28.300Z,15.50
2022-10-18T08:10:55.818Z,15.40
2022-10-18T08:13:22.825Z,15.40
2022-10-18T08:15:49.530Z,15.40
2022-10-18T08:18:16.289Z,15.50
2022-10-18T08:20:45.109Z,15.50
2022-10-18T08:23:12.072Z,15.40
2022-10-18T08:25:40.297Z,15.40
2022-10-18T08:28:11.348Z,15.40
2022-10-18T08:30:45.587Z,15.50
2022-10-18T08:33:16.580Z,15.40
2022-10-18T08:36:07.361Z,15.40
2022-10-18T08:38:39.494Z,15.40
2022-10-18T08:41:49.403Z,15.40
2022-10-18T08:44:32.891Z,15.40
2022-10-18T08:47:08.083Z,15.40
2022-10-18T08:49:58.953Z,15.40
2022-10-18T08:55:39.827Z,15.40
2022-10-18T08:58:32.608Z,15.40
2022-10-18T09:01:37.782Z,15.40
2022-10-18T09:04:26.806Z,15.40
2022-10-18T09:07:24.320Z,15.40
2022-10-18T09:10:15.121Z,15.40
2022-10-18T09:13:08.571Z,15.40
2022-10-18T09:18:48.803Z,15.40
2022-10-18T09:21:50.000Z,15.40
2022-10-18T09:24:34.958Z,15.50
2022-10-18T09:27:20.911Z,15.60
2022-10-18T09:30:15.220Z,15.60
2022-10-18T09:33:27.264Z,15.70
2022-10-18T09:36:22.358Z,15.70
2022-10-18T09:38:58.642Z,15.70
2022-10-18T09:41:41.559Z,15.70
2022-10-18T09:44:26.260Z,15.70
2022-10-18T09:47:06.626Z,15.70
2022-10-18T09:50:16.803Z,15.70
2022-10-18T09:52:54.196Z,15.70
2022-10-18T09:55:35.443Z,15.70
2022-10-18T09:58:09.149Z,15.70
2022-10-18T10:00:52.340Z,15.70
2022-10-18T10:03:24.691Z,15.80
2022-10-18T10:06:18.867Z,15.90
2022-10-18T10:09:00.753Z,16.00
2022-10-18T10:11:38.854Z,16.00
2022-10-18T10:14:28.771Z,16.10
2022-10-18T10:17:34.265Z,16.10
2022-10-18T10:20:39.317Z,16.20
2022-10-18T10:23:39.723Z,16.10
2022-10-18T10:26:40.737Z,16.20
2022-10-18T10:29:51.186Z,16.40
2022-10-18T10:32:21.566Z,16.40
2022-10-18T10:34:49.658Z,16.40
2022-10-18T10:37:28.198Z,16.40
2022-10-18T10:40:20.451Z,16.40
2022-10-18T10:43:36.597Z,16.40
2022-10-18T10:46:16.362Z,16.50
2022-10-18T10:49:04.197Z,16.60
2022-10-18T10:51:41.496Z,16.60
2022-10-18T10:54:25.177Z,16.50
2022-10-18T10:57:13.024Z,16.60
2022-10-18T10:59:50.227Z,16.60
2022-10-18T11:02:28.125Z,16.70
2022-10-18T11:04:59.705Z,16.80
2022-10-18T11:07:42.506Z,16.90
2022-10-18T11:10:24.182Z,16.90
2022-10-18T11:13:35.628Z,16.90
2022-10-18T11:16:49.966Z,16.90
2022-10-18T11:20:02.976Z,16.80
2022-10-18T11:22:39.006Z,16.90
2022-10-18T11:28:17.412Z,17.10
2022-10-18T11:31:13.988Z,17.60
2022-10-18T11:34:34.645Z,18.00
2022-10-18T11:37:29.157Z,18.10
2022-10-18T11:41:13.448Z,18.10
2022-10-18T11:44:09.623Z,17.80
2022-10-18T11:47:22.422Z,17.70
2022-10-18T11:50:29.550Z,17.50
2022-10-18T11:53:26.623Z,17.80
2022-10-18T11:56:49.804Z,18.00
2022-10-18T12:00:01.643Z,18.50
2022-10-18T12:03:21.582Z,18.60
2022-10-18T12:05:52.820Z,18.70
2022-10-18T12:08:53.480Z,18.90
2022-10-18T12:11:32.605Z,19.10
2022-10-18T12:14:33.295Z,19.30
2022-10-18T12:17:41.804Z,19.40
2022-10-18T12:20:03.497Z,19.60
2022-10-18T12:23:01.167Z,19.70
2022-10-18T12:25:39.036Z,20.00
2022-10-18T12:28:18.671Z,20.40
2022-10-18T12:31:15.967Z,20.70
2022-10-18T12:33:55.161Z,20.90
2022-10-18T12:36:31.055Z,21.00
2022-10-18T12:39:10.808Z,21.10
2022-10-18T12:41:49.395Z,21.00
2022-10-18T12:44:25.989Z,20.70
2022-10-18T12:47:00.945Z,20.40
2022-10-18T12:49:59.304Z,20.00
2022-10-18T12:53:01.580Z,19.50
2022-10-18T12:55:41.054Z,19.60
2022-10-18T12:58:23.996Z,20.00
2022-10-18T13:04:01.989Z,21.10
2022-10-18T13:07:09.968Z,21.70
2022-10-18T13:10:19.711Z,22.00
2022-10-18T13:13:38.294Z,22.10
2022-10-18T13:16:37.070Z,22.30
2022-10-18T13:19:34.819Z,22.60
2022-10-18T13:22:41.024Z,22.40
2022-10-18T13:25:36.407Z,22.80
2022-10-18T13:28:25.875Z,23.30
2022-10-18T13:31:19.063Z,22.90
2022-10-18T13:33:51.123Z,23.10
2022-10-18T13:36:22.922Z,22.90
2022-10-18T13:39:09.502Z,23.10
2022-10-18T13:42:02.662Z,23.40
2022-10-18T13:44:51.874Z,23.50
2022-10-18T13:47:41.116Z,22.70
2022-10-18T13:50:41.065Z,22.00
2022-10-18T13:53:23.907Z,21.20
2022-10-18T13:56:16.938Z,20.90
2022-10-18T13:59:27.655Z,20.70
2022-10-18T14:02:50.651Z,21.20
2022-10-18T14:05:26.061Z,21.70
2022-10-18T14:08:46.801Z,21.90
2022-10-18T14:11:47.548Z,21.80
2022-10-18T14:15:09.863Z,21.70
2022-10-18T14:18:00.974Z,22.10
2022-10-18T14:21:01.439Z,22.00
2022-10-18T14:23:40.902Z,22.00
2022-10-18T14:29:19.607Z,22.00
2022-10-18T14:31:57.645Z,22.00
2022-10-18T14:34:25.934Z,22.20
2022-10-18T14:36:56.800Z,22.10
2022-10-18T14:39:40.816Z,22.00
2022-10-18T14:45:06.597Z,22.10
2022-10-18T14:47:47.455Z,22.00
2022-10-18T14:50:30.356Z,21.90
2022-10-18T14:52:58.829Z,21.80
2022-10-18T14:55:34.848Z,21.80
2022-10-18T14:58:07.631Z,21.70
2022-10-18T15:01:01.511Z,21.40
2022-10-18T15:03:40.887Z,21.30
2022-10-18T15:06:19.431Z,21.00
2022-10-18T15:08:57.637Z,21.00
2022-10-18T15:11:26.722Z,20.90
2022-10-18T15:17:00.399Z,20.90
2022-10-18T15:19:41.646Z,20.80
2022-10-18T15:25:30.857Z,20.90
2022-10-18T15:28:29.116Z,20.70
2022-10-18T15:31:01.192Z,20.70
2022-10-18T15:33:34.993Z,20.60
2022-10-18T15:36:10.470Z,20.50
2022-10-18T15:38:41.262Z,20.30
2022-10-18T15:41:56.475Z,20.20
2022-10-18T15:44:48.828Z,20.10
2022-10-18T15:47:23.132Z,20.00
2022-10-18T15:50:00.737Z,19.70
2022-10-18T15:52:42.151Z,19.60
2022-10-18T15:55:31.493Z,19.60
2022-10-18T15:58:33.970Z,19.50
2022-10-18T16:01:06.019Z,19.30
2022-10-18T16:03:36.230Z,19.20
2022-10-18T16:06:20.673Z,18.90
2022-10-18T16:08:52.800Z,18.80
2022-10-18T16:11:26.371Z,18.60
2022-10-18T16:14:02.834Z,18.40
2022-10-18T16:16:40.060Z,18.20
2022-10-18T16:19:11.156Z,17.80
2022-10-18T16:21:39.618Z,17.50
2022-10-18T16:24:09.714Z,17.30
2022-10-18T16:26:41.404Z,17.10
2022-10-18T16:29:16.823Z,17.00
2022-10-18T16:31:50.328Z,16.90
2022-10-18T16:34:19.636Z,16.70
2022-10-18T16:36:47.065Z,16.50
2022-10-18T16:39:21.234Z,16.40
2022-10-18T16:41:57.974Z,16.30
2022-10-18T16:44:32.014Z,16.30
2022-10-18T16:46:59.101Z,16.10
2022-10-18T16:49:30.310Z,15.90
2022-10-18T16:52:02.397Z,15.80
2022-10-18T16:54:39.269Z,15.70
2022-10-18T16:57:06.745Z,15.60
2022-10-18T16:59:33.697Z,15.50
2022-10-18T17:02:09.079Z,15.40
2022-10-18T17:04:37.164Z,15.30
2022-10-18T17:07:06.090Z,15.30
2022-10-18T17:09:39.601Z,15.20
2022-10-18T17:12:09.510Z,15.10
2022-10-18T17:14:37.485Z,15.10
2022-10-18T17:17:13.729Z,15.00
2022-10-18T17:19:47.696Z,14.90
2022-10-18T17:22:14.538Z,14.90
2022-10-18T17:24:43.148Z,14.80
2022-10-18T17:27:13.597Z,14.70
2022-10-18T17:29:52.231Z,14.70
2022-10-18T17:32:22.592Z,14.60
2022-10-18T17:34:52.093Z,14.50
2022-10-18T17:37:23.337Z,14.40
2022-10-18T17:39:55.803Z,14.40
2022-10-18T17:42:23.862Z,14.40
2022-10-18T17:44:54.268Z,14.30
2022-10-18T17:47:25.971Z,14.30
2022-10-18T17:49:53.846Z,14.20
2022-10-18T17:52:24.925Z,14.20
2022-10-18T17:54:53.740Z,14.20
2022-10-18T17:57:21.664Z,14.10
2022-10-18T17:59:50.026Z,14.10
2022-10-18T18:02:25.397Z,14.00
2022-10-18T18:04:58.529Z,13.90
2022-10-18T18:07:28.012Z,13.80
2022-10-18T18:09:57.302Z,13.70
2022-10-18T18:12:37.409Z,13.70
2022-10-18T18:15:09.957Z,13.70
2022-10-18T18:17:56.629Z,13.60
2022-10-18T18:20:28.177Z,13.60
2022-10-18T18:23:00.473Z,13.50
2022-10-18T18:25:30.084Z,13.50
2022-10-18T18:28:05.169Z,13.50
2022-10-18T18:30:49.783Z,13.40
2022-10-18T18:33:22.543Z,13.40
2022-10-18T18:36:01.458Z,13.40
2022-10-18T18:38:29.301Z,13.40
2022-10-18T18:41:07.232Z,13.40
2022-10-18T18:43:38.371Z,13.30
2022-10-18T18:46:16.503Z,13.30
2022-10-18T18:48:56.591Z,13.20
2022-10-18T18:51:33.230Z,13.20
2022-10-18T18:54:06.519Z,13.20
2022-10-18T18:56:33.698Z,13.20
2022-10-18T18:59:05.546Z,13.20
2022-10-18T19:01:46.413Z,13.20
2022-10-18T19:04:16.378Z,13.10
2022-10-18T19:06:50.204Z,13.00
2022-10-18T19:09:25.325Z,13.00
2022-10-18T19:12:09.500Z,13.00
2022-10-18T19:14:45.158Z,13.00
2022-10-18T19:17:20.316Z,12.90
2022-10-18T19:19:55.034Z,12.80
2022-10-18T19:22:27.643Z,12.70
2022-10-18T19:27:44.904Z,12.60
2022-10-18T19:30:14.482Z,12.60
2022-10-18T19:32:54.023Z,12.60
2022-10-18T19:35:22.678Z,12.50
2022-10-18T19:37:57.308Z,12.50
2022-10-18T19:40:27.622Z,12.40
2022-10-18T19:42:59.195Z,12.40
2022-10-18T19:45:40.147Z,12.40
2022-10-18T19:48:17.942Z,12.30
2022-10-18T19:50:48.271Z,12.20
2022-10-18T19:53:25.374Z,12.20
2022-10-18T19:56:05.916Z,12.10
2022-10-18T19:58:49.507Z,12.10
2022-10-18T20:01:24.186Z,12.10
2022-10-18T20:03:52.785Z,12.00
2022-10-18T20:06:34.773Z,12.00
2022-10-18T20:09:02.885Z,11.90
2022-10-18T20:11:32.454Z,11.80
2022-10-18T20:14:11.832Z,11.80
2022-10-18T20:16:45.131Z,11.80
2022-10-18T20:19:18.130Z,11.70
2022-10-18T20:21:48.403Z,11.70
2022-10-18T20:24:18.038Z,11.70
2022-10-18T20:26:50.761Z,11.60
2022-10-18T20:29:19.132Z,11.60
2022-10-18T20:31:49.549Z,11.60
2022-10-18T20:34:18.288Z,11.60
2022-10-18T20:36:45.713Z,11.60
2022-10-18T20:39:18.135Z,11.50
2022-10-18T20:41:52.113Z,11.50
2022-10-18T20:44:36.202Z,11.50
2022-10-18T20:47:05.290Z,11.50
2022-10-18T20:49:38.003Z,11.50
2022-10-18T20:52:07.294Z,11.50
2022-10-18T20:54:44.423Z,11.40
2022-10-18T20:57:13.224Z,11.40
2022-10-18T21:02:23.899Z,11.40
2022-10-18T21:04:53.054Z,11.30
2022-10-18T21:07:20.317Z,11.30
2022-10-18T21:09:52.601Z,11.30
2022-10-18T21:15:03.322Z,11.20
2022-10-18T21:17:33.929Z,11.10
2022-10-18T21:20:09.978Z,11.10
2022-10-18T21:22:37.843Z,11.10
2022-10-18T21:25:06.968Z,11.00
2022-10-18T21:27:36.058Z,11.00
2022-10-18T21:30:25.184Z,10.90
2022-10-18T21:32:57.411Z,10.80
2022-10-18T21:35:30.593Z,10.80
2022-10-18T21:38:02.164Z,10.70
2022-10-18T21:40:30.011Z,10.60
2022-10-18T21:43:04.784Z,10.50
2022-10-18T21:45:33.982Z,10.50
2022-10-18T21:48:07.758Z,10.50
2022-10-18T21:50:37.072Z,10.40
2022-10-18T21:53:05.882Z,10.40
2022-10-18T21:55:39.021Z,10.40
2022-10-18T21:58:13.810Z,10.40
2022-10-18T22:00:50.171Z,10.40
2022-10-18T22:03:23.105Z,10.30
2022-10-18T22:06:17.202Z,10.30
2022-10-18T22:09:00.769Z,10.20
2022-10-18T22:11:41.925Z,10.20
2022-10-18T22:17:00.173Z,10.10
2022-10-18T22:19:53.058Z,10.10
2022-10-18T22:22:28.997Z,10.10
2022-10-18T22:24:59.459Z,10.10
2022-10-18T22:27:45.619Z,10.00
2022-10-18T22:30:20.914Z,10.00
2022-10-18T22:32:50.203Z,10.00
2022-10-18T22:35:18.837Z,10.00
2022-10-18T22:37:50.213Z,10.00
2022-10-18T22:40:18.589Z,10.00
2022-10-18T22:42:49.882Z,9.90
2022-10-18T22:45:32.412Z,9.90
2022-10-18T22:48:02.068Z,9.90
2022-10-18T22:50:30.302Z,9.80
2022-10-18T22:53:05.989Z,9.80
2022-10-18T22:55:51.291Z,9.80
2022-10-18T22:58:21.182Z,9.80
2022-10-18T23:00:50.026Z,9.70
2022-10-18T23:03:23.907Z,9.70
2022-10-18T23:05:55.798Z,9.70
2022-10-18T23:08:24.618Z,9.70
2022-10-18T23:10:56.153Z,9.70
2022-10-18T23:13:38.768Z,9.60
2022-10-18T23:16:07.953Z,9.60
2022-10-18T23:21:11.166Z,9.60
2022-10-18T23:23:58.225Z,9.60
2022-10-18T23:29:35.588Z,9.50
2022-10-18T23:32:06.727Z,9.40
2022-10-18T23:34:39.776Z,9.50
2022-10-18T23:37:09.271Z,9.40
2022-10-18T23:39:41.883Z,9.40
2022-10-18T23:42:14.877Z,9.30
2022-10-18T23:44:43.377Z,9.30
2022-10-18T23:47:18.904Z,9.30
2022-10-18T23:49:56.186Z,9.40
2022-10-18T23:52:24.067Z,9.30
2022-10-18T23:54:54.101Z,9.30
2022-10-18T23:57:25.933Z,9.30
2022-10-18T23:59:58.290Z,9.30
